sensor_id;sensor_type;location;lat;lon;timestamp;P1;durP1;ratioP1;P2;durP2;ratioP2
54201;SDS011;40108;53.152;5.844;2023-11-22T00:01:21;12.55;;;9.07;;
54201;SDS011;40108;53.152;5.844;2023-11-22T00:03:47;11.45;;;9.25;;
54201;SDS011;40108;53.152;5.844;2023-11-22T00:06:13;14.35;;;9.55;;
54201;SDS011;40108;53.152;5.844;2023-11-22T00:08:38;11.05;;;9.20;;
54201;SDS011;40108;53.152;5.844;2023-11-22T00:11:04;12.20;;;9.23;;
54201;SDS011;40108;53.152;5.844;2023-11-22T00:13:30;13.40;;;9.45;;
54201;SDS011;40108;53.152;5.844;2023-11-22T00:15:57;12.85;;;9.10;;
54201;SDS011;40108;53.152;5.844;2023-11-22T00:18:23;11.85;;;8.88;;
54201;SDS011;40108;53.152;5.844;2023-11-22T00:20:49;12.30;;;9.40;;
54201;SDS011;40108;53.152;5.844;2023-11-22T00:23:15;14.65;;;9.50;;
54201;SDS011;40108;53.152;5.844;2023-11-22T00:25:41;13.13;;;9.65;;
54201;SDS011;40108;53.152;5.844;2023-11-22T00:28:07;16.02;;;9.60;;
54201;SDS011;40108;53.152;5.844;2023-11-22T00:30:32;12.35;;;9.93;;
54201;SDS011;40108;53.152;5.844;2023-11-22T00:32:58;13.88;;;10.02;;
54201;SDS011;40108;53.152;5.844;2023-11-22T00:35:25;15.68;;;10.35;;
54201;SDS011;40108;53.152;5.844;2023-11-22T00:37:51;13.02;;;10.05;;
54201;SDS011;40108;53.152;5.844;2023-11-22T00:40:16;17.48;;;10.30;;
54201;SDS011;40108;53.152;5.844;2023-11-22T00:42:42;14.55;;;10.32;;
54201;SDS011;40108;53.152;5.844;2023-11-22T00:45:08;14.68;;;10.38;;
54201;SDS011;40108;53.152;5.844;2023-11-22T00:47:35;16.60;;;11.27;;
54201;SDS011;40108;53.152;5.844;2023-11-22T00:50:01;17.83;;;11.30;;
54201;SDS011;40108;53.152;5.844;2023-11-22T00:52:29;12.40;;;9.45;;
54201;SDS011;40108;53.152;5.844;2023-11-22T00:54:55;13.43;;;9.30;;
54201;SDS011;40108;53.152;5.844;2023-11-22T00:57:21;13.98;;;9.63;;
54201;SDS011;40108;53.152;5.844;2023-11-22T00:59:46;15.30;;;9.98;;
54201;SDS011;40108;53.152;5.844;2023-11-22T01:02:13;14.13;;;9.90;;
54201;SDS011;40108;53.152;5.844;2023-11-22T01:04:38;13.65;;;9.93;;
54201;SDS011;40108;53.152;5.844;2023-11-22T01:07:05;13.50;;;10.23;;
54201;SDS011;40108;53.152;5.844;2023-11-22T01:09:31;12.50;;;9.52;;
54201;SDS011;40108;53.152;5.844;2023-11-22T01:11:58;15.07;;;10.40;;
54201;SDS011;40108;53.152;5.844;2023-11-22T01:14:24;15.50;;;9.70;;
54201;SDS011;40108;53.152;5.844;2023-11-22T01:16:51;13.15;;;9.90;;
54201;SDS011;40108;53.152;5.844;2023-11-22T01:19:17;14.65;;;9.93;;
54201;SDS011;40108;53.152;5.844;2023-11-22T01:21:43;12.98;;;9.90;;
54201;SDS011;40108;53.152;5.844;2023-11-22T01:24:09;14.07;;;9.95;;
54201;SDS011;40108;53.152;5.844;2023-11-22T01:26:34;13.90;;;10.10;;
54201;SDS011;40108;53.152;5.844;2023-11-22T01:29:00;17.30;;;10.60;;
54201;SDS011;40108;53.152;5.844;2023-11-22T01:31:27;19.58;;;12.55;;
54201;SDS011;40108;53.152;5.844;2023-11-22T01:33:53;15.63;;;11.30;;
54201;SDS011;40108;53.152;5.844;2023-11-22T01:36:20;18.60;;;12.02;;
54201;SDS011;40108;53.152;5.844;2023-11-22T01:38:45;19.63;;;12.20;;
54201;SDS011;40108;53.152;5.844;2023-11-22T01:41:12;15.23;;;11.25;;
54201;SDS011;40108;53.152;5.844;2023-11-22T01:43:38;15.73;;;11.82;;
54201;SDS011;40108;53.152;5.844;2023-11-22T01:46:09;18.73;;;11.25;;
54201;SDS011;40108;53.152;5.844;2023-11-22T01:48:42;16.95;;;11.27;;
54201;SDS011;40108;53.152;5.844;2023-11-22T01:51:07;17.90;;;11.30;;
54201;SDS011;40108;53.152;5.844;2023-11-22T01:53:33;15.30;;;11.02;;
54201;SDS011;40108;53.152;5.844;2023-11-22T01:55:59;19.15;;;11.75;;
54201;SDS011;40108;53.152;5.844;2023-11-22T01:58:26;16.92;;;12.27;;
54201;SDS011;40108;53.152;5.844;2023-11-22T02:00:52;18.13;;;11.85;;
54201;SDS011;40108;53.152;5.844;2023-11-22T02:03:18;16.63;;;12.02;;
54201;SDS011;40108;53.152;5.844;2023-11-22T02:05:44;20.10;;;11.98;;
54201;SDS011;40108;53.152;5.844;2023-11-22T02:08:11;18.70;;;12.13;;
54201;SDS011;40108;53.152;5.844;2023-11-22T02:10:37;19.45;;;12.70;;
54201;SDS011;40108;53.152;5.844;2023-11-22T02:13:04;21.50;;;13.23;;
54201;SDS011;40108;53.152;5.844;2023-11-22T02:15:32;17.73;;;13.40;;
54201;SDS011;40108;53.152;5.844;2023-11-22T02:18:02;23.33;;;13.63;;
54201;SDS011;40108;53.152;5.844;2023-11-22T02:20:29;23.13;;;13.98;;
54201;SDS011;40108;53.152;5.844;2023-11-22T02:23:01;20.73;;;13.85;;
54201;SDS011;40108;53.152;5.844;2023-11-22T02:25:34;21.75;;;13.30;;
54201;SDS011;40108;53.152;5.844;2023-11-22T02:28:00;21.05;;;13.82;;
54201;SDS011;40108;53.152;5.844;2023-11-22T02:30:27;23.77;;;15.07;;
54201;SDS011;40108;53.152;5.844;2023-11-22T02:32:53;23.15;;;14.05;;
54201;SDS011;40108;53.152;5.844;2023-11-22T02:35:19;22.83;;;13.88;;
54201;SDS011;40108;53.152;5.844;2023-11-22T02:37:45;21.83;;;14.15;;
54201;SDS011;40108;53.152;5.844;2023-11-22T02:40:19;20.15;;;12.73;;
54201;SDS011;40108;53.152;5.844;2023-11-22T02:42:49;22.20;;;14.38;;
54201;SDS011;40108;53.152;5.844;2023-11-22T02:45:16;22.80;;;13.35;;
54201;SDS011;40108;53.152;5.844;2023-11-22T02:47:43;21.38;;;13.25;;
54201;SDS011;40108;53.152;5.844;2023-11-22T02:50:15;20.58;;;12.70;;
54201;SDS011;40108;53.152;5.844;2023-11-22T02:52:41;20.08;;;13.35;;
54201;SDS011;40108;53.152;5.844;2023-11-22T02:55:07;22.60;;;13.35;;
54201;SDS011;40108;53.152;5.844;2023-11-22T02:57:36;19.73;;;13.13;;
54201;SDS011;40108;53.152;5.844;2023-11-22T03:00:03;21.23;;;13.75;;
54201;SDS011;40108;53.152;5.844;2023-11-22T03:02:30;22.85;;;13.70;;
54201;SDS011;40108;53.152;5.844;2023-11-22T03:04:57;25.15;;;14.50;;
54201;SDS011;40108;53.152;5.844;2023-11-22T03:07:23;21.33;;;13.52;;
54201;SDS011;40108;53.152;5.844;2023-11-22T03:09:50;19.85;;;13.20;;
54201;SDS011;40108;53.152;5.844;2023-11-22T03:12:16;21.98;;;13.50;;
54201;SDS011;40108;53.152;5.844;2023-11-22T03:14:43;20.00;;;13.35;;
54201;SDS011;40108;53.152;5.844;2023-11-22T03:17:08;22.63;;;13.30;;
54201;SDS011;40108;53.152;5.844;2023-11-22T03:19:34;21.17;;;13.50;;
54201;SDS011;40108;53.152;5.844;2023-11-22T03:22:00;20.90;;;12.68;;
54201;SDS011;40108;53.152;5.844;2023-11-22T03:24:29;22.98;;;13.77;;
54201;SDS011;40108;53.152;5.844;2023-11-22T03:26:55;22.90;;;13.70;;
54201;SDS011;40108;53.152;5.844;2023-11-22T03:29:24;26.55;;;14.90;;
54201;SDS011;40108;53.152;5.844;2023-11-22T03:31:50;24.60;;;14.48;;
54201;SDS011;40108;53.152;5.844;2023-11-22T03:34:16;20.95;;;12.88;;
54201;SDS011;40108;53.152;5.844;2023-11-22T03:36:43;21.50;;;13.75;;
54201;SDS011;40108;53.152;5.844;2023-11-22T03:39:09;20.27;;;12.73;;
54201;SDS011;40108;53.152;5.844;2023-11-22T03:41:35;20.10;;;13.43;;
54201;SDS011;40108;53.152;5.844;2023-11-22T03:44:02;19.58;;;12.32;;
54201;SDS011;40108;53.152;5.844;2023-11-22T03:46:29;21.73;;;12.82;;
54201;SDS011;40108;53.152;5.844;2023-11-22T03:48:55;21.65;;;13.25;;
54201;SDS011;40108;53.152;5.844;2023-11-22T03:51:21;19.38;;;12.48;;
54201;SDS011;40108;53.152;5.844;2023-11-22T03:53:47;20.13;;;13.00;;
54201;SDS011;40108;53.152;5.844;2023-11-22T03:56:12;21.13;;;12.10;;
54201;SDS011;40108;53.152;5.844;2023-11-22T03:58:39;24.10;;;13.05;;
54201;SDS011;40108;53.152;5.844;2023-11-22T04:01:05;21.65;;;13.18;;
54201;SDS011;40108;53.152;5.844;2023-11-22T04:03:31;23.45;;;13.20;;
54201;SDS011;40108;53.152;5.844;2023-11-22T04:05:57;20.92;;;12.57;;
54201;SDS011;40108;53.152;5.844;2023-11-22T04:08:23;23.75;;;13.48;;
54201;SDS011;40108;53.152;5.844;2023-11-22T04:10:49;21.58;;;13.02;;
54201;SDS011;40108;53.152;5.844;2023-11-22T04:13:15;26.15;;;14.13;;
54201;SDS011;40108;53.152;5.844;2023-11-22T04:15:41;22.95;;;13.60;;
54201;SDS011;40108;53.152;5.844;2023-11-22T04:18:06;22.48;;;13.98;;
54201;SDS011;40108;53.152;5.844;2023-11-22T04:20:32;22.85;;;13.55;;
54201;SDS011;40108;53.152;5.844;2023-11-22T04:22:58;25.92;;;14.70;;
54201;SDS011;40108;53.152;5.844;2023-11-22T04:25:24;22.58;;;14.05;;
54201;SDS011;40108;53.152;5.844;2023-11-22T04:27:49;25.40;;;14.27;;
54201;SDS011;40108;53.152;5.844;2023-11-22T04:30:15;28.45;;;14.02;;
54201;SDS011;40108;53.152;5.844;2023-11-22T04:32:42;24.10;;;14.52;;
54201;SDS011;40108;53.152;5.844;2023-11-22T04:35:09;25.02;;;14.52;;
54201;SDS011;40108;53.152;5.844;2023-11-22T04:37:35;22.60;;;12.73;;
54201;SDS011;40108;53.152;5.844;2023-11-22T04:40:02;25.02;;;14.45;;
54201;SDS011;40108;53.152;5.844;2023-11-22T04:42:33;25.00;;;13.35;;
54201;SDS011;40108;53.152;5.844;2023-11-22T04:45:01;25.05;;;14.80;;
54201;SDS011;40108;53.152;5.844;2023-11-22T04:47:28;26.17;;;14.68;;
54201;SDS011;40108;53.152;5.844;2023-11-22T04:49:54;29.65;;;14.73;;
54201;SDS011;40108;53.152;5.844;2023-11-22T04:52:19;25.92;;;14.80;;
54201;SDS011;40108;53.152;5.844;2023-11-22T04:54:45;26.42;;;15.20;;
54201;SDS011;40108;53.152;5.844;2023-11-22T04:57:10;26.42;;;15.25;;
54201;SDS011;40108;53.152;5.844;2023-11-22T04:59:36;28.02;;;15.75;;
54201;SDS011;40108;53.152;5.844;2023-11-22T05:02:03;26.27;;;15.07;;
54201;SDS011;40108;53.152;5.844;2023-11-22T05:04:29;26.40;;;13.93;;
54201;SDS011;40108;53.152;5.844;2023-11-22T05:06:55;29.65;;;15.20;;
54201;SDS011;40108;53.152;5.844;2023-11-22T05:09:21;23.45;;;13.60;;
54201;SDS011;40108;53.152;5.844;2023-11-22T05:11:46;25.90;;;14.13;;
54201;SDS011;40108;53.152;5.844;2023-11-22T05:14:12;24.98;;;14.27;;
54201;SDS011;40108;53.152;5.844;2023-11-22T05:16:38;25.70;;;14.23;;
54201;SDS011;40108;53.152;5.844;2023-11-22T05:19:04;26.13;;;13.95;;
54201;SDS011;40108;53.152;5.844;2023-11-22T05:21:30;23.08;;;12.80;;
54201;SDS011;40108;53.152;5.844;2023-11-22T05:23:57;27.00;;;14.27;;
54201;SDS011;40108;53.152;5.844;2023-11-22T05:26:24;27.83;;;14.57;;
54201;SDS011;40108;53.152;5.844;2023-11-22T05:28:49;27.92;;;15.05;;
54201;SDS011;40108;53.152;5.844;2023-11-22T05:31:15;29.58;;;15.18;;
54201;SDS011;40108;53.152;5.844;2023-11-22T05:33:41;26.13;;;15.18;;
54201;SDS011;40108;53.152;5.844;2023-11-22T05:36:07;29.33;;;17.02;;
54201;SDS011;40108;53.152;5.844;2023-11-22T05:38:33;34.80;;;18.38;;
54201;SDS011;40108;53.152;5.844;2023-11-22T05:41:02;35.30;;;23.20;;
54201;SDS011;40108;53.152;5.844;2023-11-22T05:43:28;39.65;;;18.27;;
54201;SDS011;40108;53.152;5.844;2023-11-22T05:45:53;34.42;;;15.70;;
54201;SDS011;40108;53.152;5.844;2023-11-22T05:48:19;38.40;;;17.52;;
54201;SDS011;40108;53.152;5.844;2023-11-22T05:50:45;42.45;;;19.05;;
54201;SDS011;40108;53.152;5.844;2023-11-22T05:53:12;31.45;;;15.77;;
54201;SDS011;40108;53.152;5.844;2023-11-22T05:55:37;27.50;;;14.45;;
54201;SDS011;40108;53.152;5.844;2023-11-22T05:58:03;32.15;;;15.07;;
54201;SDS011;40108;53.152;5.844;2023-11-22T06:00:29;30.30;;;15.38;;
54201;SDS011;40108;53.152;5.844;2023-11-22T06:02:55;26.67;;;15.07;;
54201;SDS011;40108;53.152;5.844;2023-11-22T06:05:21;27.02;;;15.57;;
54201;SDS011;40108;53.152;5.844;2023-11-22T06:07:47;32.25;;;16.33;;
54201;SDS011;40108;53.152;5.844;2023-11-22T06:10:13;29.90;;;15.60;;
54201;SDS011;40108;53.152;5.844;2023-11-22T06:12:40;31.25;;;16.00;;
54201;SDS011;40108;53.152;5.844;2023-11-22T06:15:06;30.15;;;15.98;;
54201;SDS011;40108;53.152;5.844;2023-11-22T06:17:32;25.23;;;15.43;;
54201;SDS011;40108;53.152;5.844;2023-11-22T06:19:58;31.90;;;16.58;;
54201;SDS011;40108;53.152;5.844;2023-11-22T06:22:24;29.10;;;17.17;;
54201;SDS011;40108;53.152;5.844;2023-11-22T06:24:49;29.42;;;17.38;;
54201;SDS011;40108;53.152;5.844;2023-11-22T06:27:15;32.13;;;17.35;;
54201;SDS011;40108;53.152;5.844;2023-11-22T06:29:41;31.70;;;17.17;;
54201;SDS011;40108;53.152;5.844;2023-11-22T06:32:09;28.85;;;16.13;;
54201;SDS011;40108;53.152;5.844;2023-11-22T06:34:35;29.27;;;16.42;;
54201;SDS011;40108;53.152;5.844;2023-11-22T06:37:01;23.33;;;14.32;;
54201;SDS011;40108;53.152;5.844;2023-11-22T06:39:27;27.33;;;15.30;;
54201;SDS011;40108;53.152;5.844;2023-11-22T06:41:53;31.67;;;17.58;;
54201;SDS011;40108;53.152;5.844;2023-11-22T06:44:19;32.03;;;16.60;;
54201;SDS011;40108;53.152;5.844;2023-11-22T06:46:44;27.98;;;16.08;;
54201;SDS011;40108;53.152;5.844;2023-11-22T06:49:10;30.50;;;15.27;;
54201;SDS011;40108;53.152;5.844;2023-11-22T06:51:36;31.67;;;16.77;;
54201;SDS011;40108;53.152;5.844;2023-11-22T06:54:02;31.42;;;16.98;;
54201;SDS011;40108;53.152;5.844;2023-11-22T06:56:28;32.92;;;16.23;;
54201;SDS011;40108;53.152;5.844;2023-11-22T06:58:54;27.55;;;15.07;;
54201;SDS011;40108;53.152;5.844;2023-11-22T07:01:22;32.58;;;16.52;;
54201;SDS011;40108;53.152;5.844;2023-11-22T07:03:51;28.90;;;15.70;;
54201;SDS011;40108;53.152;5.844;2023-11-22T07:06:17;29.52;;;15.55;;
54201;SDS011;40108;53.152;5.844;2023-11-22T07:08:46;29.75;;;16.20;;
54201;SDS011;40108;53.152;5.844;2023-11-22T07:11:12;30.15;;;15.32;;
54201;SDS011;40108;53.152;5.844;2023-11-22T07:13:38;30.90;;;15.73;;
54201;SDS011;40108;53.152;5.844;2023-11-22T07:16:05;28.88;;;15.20;;
54201;SDS011;40108;53.152;5.844;2023-11-22T07:18:32;31.33;;;15.73;;
54201;SDS011;40108;53.152;5.844;2023-11-22T07:20:59;31.65;;;15.07;;
54201;SDS011;40108;53.152;5.844;2023-11-22T07:23:25;31.15;;;15.60;;
54201;SDS011;40108;53.152;5.844;2023-11-22T07:25:54;30.25;;;15.93;;
54201;SDS011;40108;53.152;5.844;2023-11-22T07:28:20;27.05;;;14.57;;
54201;SDS011;40108;53.152;5.844;2023-11-22T07:30:46;26.80;;;14.18;;
54201;SDS011;40108;53.152;5.844;2023-11-22T07:33:14;28.15;;;14.45;;
54201;SDS011;40108;53.152;5.844;2023-11-22T07:35:42;32.95;;;15.70;;
54201;SDS011;40108;53.152;5.844;2023-11-22T07:38:08;31.52;;;16.52;;
54201;SDS011;40108;53.152;5.844;2023-11-22T07:40:36;33.95;;;17.60;;
54201;SDS011;40108;53.152;5.844;2023-11-22T07:43:02;33.95;;;17.13;;
54201;SDS011;40108;53.152;5.844;2023-11-22T07:45:30;32.65;;;18.13;;
54201;SDS011;40108;53.152;5.844;2023-11-22T07:47:57;33.42;;;17.63;;
54201;SDS011;40108;53.152;5.844;2023-11-22T07:50:25;33.15;;;18.13;;
54201;SDS011;40108;53.152;5.844;2023-11-22T07:52:51;32.70;;;17.08;;
54201;SDS011;40108;53.152;5.844;2023-11-22T07:55:17;33.80;;;17.13;;
54201;SDS011;40108;53.152;5.844;2023-11-22T07:57:46;39.10;;;18.60;;
54201;SDS011;40108;53.152;5.844;2023-11-22T08:00:20;37.78;;;17.65;;
54201;SDS011;40108;53.152;5.844;2023-11-22T08:02:47;36.45;;;19.17;;
54201;SDS011;40108;53.152;5.844;2023-11-22T08:05:14;34.55;;;18.10;;
54201;SDS011;40108;53.152;5.844;2023-11-22T08:07:42;32.58;;;17.92;;
54201;SDS011;40108;53.152;5.844;2023-11-22T08:10:10;37.67;;;19.33;;
54201;SDS011;40108;53.152;5.844;2023-11-22T08:12:48;36.38;;;17.20;;
54201;SDS011;40108;53.152;5.844;2023-11-22T08:15:15;33.05;;;18.33;;
54201;SDS011;40108;53.152;5.844;2023-11-22T08:17:42;38.08;;;19.10;;
54201;SDS011;40108;53.152;5.844;2023-11-22T08:20:08;32.97;;;16.63;;
54201;SDS011;40108;53.152;5.844;2023-11-22T08:22:41;37.60;;;18.55;;
54201;SDS011;40108;53.152;5.844;2023-11-22T08:25:08;30.83;;;16.63;;
54201;SDS011;40108;53.152;5.844;2023-11-22T08:27:37;32.83;;;17.52;;
54201;SDS011;40108;53.152;5.844;2023-11-22T08:30:04;30.67;;;16.63;;
54201;SDS011;40108;53.152;5.844;2023-11-22T08:32:31;33.30;;;17.88;;
54201;SDS011;40108;53.152;5.844;2023-11-22T08:34:57;39.25;;;18.50;;
54201;SDS011;40108;53.152;5.844;2023-11-22T08:37:23;29.38;;;16.88;;
54201;SDS011;40108;53.152;5.844;2023-11-22T08:39:49;31.33;;;17.27;;
54201;SDS011;40108;53.152;5.844;2023-11-22T08:42:15;37.83;;;18.73;;
54201;SDS011;40108;53.152;5.844;2023-11-22T08:44:41;36.50;;;19.00;;
54201;SDS011;40108;53.152;5.844;2023-11-22T08:47:06;34.58;;;19.35;;
54201;SDS011;40108;53.152;5.844;2023-11-22T08:49:33;31.50;;;16.95;;
54201;SDS011;40108;53.152;5.844;2023-11-22T08:51:59;31.55;;;18.27;;
54201;SDS011;40108;53.152;5.844;2023-11-22T08:54:27;34.90;;;17.98;;
54201;SDS011;40108;53.152;5.844;2023-11-22T08:56:54;33.08;;;18.00;;
54201;SDS011;40108;53.152;5.844;2023-11-22T08:59:22;32.22;;;17.13;;
54201;SDS011;40108;53.152;5.844;2023-11-22T09:01:48;34.22;;;19.55;;
54201;SDS011;40108;53.152;5.844;2023-11-22T09:04:14;31.17;;;17.80;;
54201;SDS011;40108;53.152;5.844;2023-11-22T09:06:40;33.53;;;19.73;;
54201;SDS011;40108;53.152;5.844;2023-11-22T09:09:07;35.67;;;20.48;;
54201;SDS011;40108;53.152;5.844;2023-11-22T09:11:33;31.08;;;18.63;;
54201;SDS011;40108;53.152;5.844;2023-11-22T09:14:00;33.72;;;19.88;;
54201;SDS011;40108;53.152;5.844;2023-11-22T09:16:38;34.35;;;20.02;;
54201;SDS011;40108;53.152;5.844;2023-11-22T09:19:04;31.98;;;17.27;;
54201;SDS011;40108;53.152;5.844;2023-11-22T09:21:33;29.13;;;16.77;;
54201;SDS011;40108;53.152;5.844;2023-11-22T09:24:00;30.88;;;18.17;;
54201;SDS011;40108;53.152;5.844;2023-11-22T09:26:26;32.40;;;19.60;;
54201;SDS011;40108;53.152;5.844;2023-11-22T09:28:51;32.22;;;18.73;;
54201;SDS011;40108;53.152;5.844;2023-11-22T09:31:19;33.10;;;19.08;;
54201;SDS011;40108;53.152;5.844;2023-11-22T09:33:45;30.00;;;16.30;;
54201;SDS011;40108;53.152;5.844;2023-11-22T09:36:12;37.90;;;21.70;;
54201;SDS011;40108;53.152;5.844;2023-11-22T09:38:38;31.40;;;17.58;;
54201;SDS011;40108;53.152;5.844;2023-11-22T09:41:04;37.35;;;20.58;;
54201;SDS011;40108;53.152;5.844;2023-11-22T09:43:30;28.55;;;17.30;;
54201;SDS011;40108;53.152;5.844;2023-11-22T09:45:56;31.13;;;17.83;;
54201;SDS011;40108;53.152;5.844;2023-11-22T09:48:23;36.15;;;19.98;;
54201;SDS011;40108;53.152;5.844;2023-11-22T09:53:31;31.20;;;17.70;;
54201;SDS011;40108;53.152;5.844;2023-11-22T09:55:58;31.75;;;18.17;;
54201;SDS011;40108;53.152;5.844;2023-11-22T09:58:26;25.42;;;16.13;;
54201;SDS011;40108;53.152;5.844;2023-11-22T10:00:55;28.17;;;18.13;;
54201;SDS011;40108;53.152;5.844;2023-11-22T10:03:21;27.95;;;16.98;;
54201;SDS011;40108;53.152;5.844;2023-11-22T10:05:53;29.50;;;17.52;;
54201;SDS011;40108;53.152;5.844;2023-11-22T10:08:21;26.13;;;16.05;;
54201;SDS011;40108;53.152;5.844;2023-11-22T10:10:48;26.42;;;16.80;;
54201;SDS011;40108;53.152;5.844;2023-11-22T10:13:16;25.45;;;16.20;;
54201;SDS011;40108;53.152;5.844;2023-11-22T10:15:45;26.42;;;15.90;;
54201;SDS011;40108;53.152;5.844;2023-11-22T10:18:13;26.42;;;15.55;;
54201;SDS011;40108;53.152;5.844;2023-11-22T10:20:39;21.23;;;14.07;;
54201;SDS011;40108;53.152;5.844;2023-11-22T10:23:10;25.38;;;15.82;;
54201;SDS011;40108;53.152;5.844;2023-11-22T10:25:43;22.35;;;12.85;;
54201;SDS011;40108;53.152;5.844;2023-11-22T10:28:09;29.02;;;17.42;;
54201;SDS011;40108;53.152;5.844;2023-11-22T10:30:35;28.15;;;14.65;;
54201;SDS011;40108;53.152;5.844;2023-11-22T10:33:02;24.35;;;15.40;;
54201;SDS011;40108;53.152;5.844;2023-11-22T10:35:28;27.17;;;17.92;;
54201;SDS011;40108;53.152;5.844;2023-11-22T10:37:54;21.40;;;14.57;;
54201;SDS011;40108;53.152;5.844;2023-11-22T10:40:20;22.52;;;12.38;;
54201;SDS011;40108;53.152;5.844;2023-11-22T10:42:45;22.10;;;14.35;;
54201;SDS011;40108;53.152;5.844;2023-11-22T10:45:17;17.90;;;10.27;;
54201;SDS011;40108;53.152;5.844;2023-11-22T10:47:43;23.08;;;15.40;;
54201;SDS011;40108;53.152;5.844;2023-11-22T10:50:10;24.65;;;16.23;;
54201;SDS011;40108;53.152;5.844;2023-11-22T10:52:40;23.45;;;15.45;;
54201;SDS011;40108;53.152;5.844;2023-11-22T10:55:07;22.75;;;15.88;;
54201;SDS011;40108;53.152;5.844;2023-11-22T10:57:39;24.63;;;15.63;;
54201;SDS011;40108;53.152;5.844;2023-11-22T11:00:10;22.25;;;14.00;;
54201;SDS011;40108;53.152;5.844;2023-11-22T11:02:44;21.52;;;15.18;;
54201;SDS011;40108;53.152;5.844;2023-11-22T11:05:18;20.30;;;14.07;;
54201;SDS011;40108;53.152;5.844;2023-11-22T11:07:49;16.95;;;11.75;;
54201;SDS011;40108;53.152;5.844;2023-11-22T11:10:45;15.98;;;11.30;;
54201;SDS011;40108;53.152;5.844;2023-11-22T11:13:12;20.92;;;13.90;;
54201;SDS011;40108;53.152;5.844;2023-11-22T11:15:42;23.40;;;14.52;;
54201;SDS011;40108;53.152;5.844;2023-11-22T11:18:09;22.13;;;14.25;;
54201;SDS011;40108;53.152;5.844;2023-11-22T11:21:12;20.95;;;14.00;;
54201;SDS011;40108;53.152;5.844;2023-11-22T11:23:37;19.58;;;12.75;;
54201;SDS011;40108;53.152;5.844;2023-11-22T11:26:09;20.25;;;13.43;;
54201;SDS011;40108;53.152;5.844;2023-11-22T11:28:49;19.42;;;13.50;;
54201;SDS011;40108;53.152;5.844;2023-11-22T11:31:16;17.42;;;12.55;;
54201;SDS011;40108;53.152;5.844;2023-11-22T11:38:54;16.15;;;10.15;;
54201;SDS011;40108;53.152;5.844;2023-11-22T11:41:25;17.08;;;12.50;;
54201;SDS011;40108;53.152;5.844;2023-11-22T11:43:52;15.18;;;10.57;;
54201;SDS011;40108;53.152;5.844;2023-11-22T11:46:19;19.55;;;12.07;;
54201;SDS011;40108;53.152;5.844;2023-11-22T11:48:48;12.07;;;8.20;;
54201;SDS011;40108;53.152;5.844;2023-11-22T11:51:18;16.80;;;12.07;;
54201;SDS011;40108;53.152;5.844;2023-11-22T11:53:48;18.95;;;13.10;;
54201;SDS011;40108;53.152;5.844;2023-11-22T11:56:14;18.13;;;11.68;;
54201;SDS011;40108;53.152;5.844;2023-11-22T11:58:41;17.90;;;13.10;;
54201;SDS011;40108;53.152;5.844;2023-11-22T12:01:08;18.23;;;13.32;;
54201;SDS011;40108;53.152;5.844;2023-11-22T12:03:37;17.63;;;11.73;;
54201;SDS011;40108;53.152;5.844;2023-11-22T12:06:04;17.02;;;11.35;;
54201;SDS011;40108;53.152;5.844;2023-11-22T12:08:33;17.48;;;12.88;;
54201;SDS011;40108;53.152;5.844;2023-11-22T12:11:02;17.27;;;12.38;;
54201;SDS011;40108;53.152;5.844;2023-11-22T12:13:29;19.00;;;11.70;;
54201;SDS011;40108;53.152;5.844;2023-11-22T12:15:56;16.48;;;11.23;;
54201;SDS011;40108;53.152;5.844;2023-11-22T12:18:22;18.13;;;13.10;;
54201;SDS011;40108;53.152;5.844;2023-11-22T12:20:58;20.20;;;13.18;;
54201;SDS011;40108;53.152;5.844;2023-11-22T12:23:25;16.15;;;12.18;;
54201;SDS011;40108;53.152;5.844;2023-11-22T12:25:59;16.45;;;11.20;;
54201;SDS011;40108;53.152;5.844;2023-11-22T12:28:27;18.50;;;12.27;;
54201;SDS011;40108;53.152;5.844;2023-11-22T12:30:54;18.73;;;12.38;;
54201;SDS011;40108;53.152;5.844;2023-11-22T12:33:20;17.83;;;12.50;;
54201;SDS011;40108;53.152;5.844;2023-11-22T12:35:46;19.17;;;13.52;;
54201;SDS011;40108;53.152;5.844;2023-11-22T12:38:13;21.05;;;14.13;;
54201;SDS011;40108;53.152;5.844;2023-11-22T12:40:44;18.92;;;12.32;;
54201;SDS011;40108;53.152;5.844;2023-11-22T12:43:12;18.85;;;12.70;;
54201;SDS011;40108;53.152;5.844;2023-11-22T12:45:39;20.85;;;14.55;;
54201;SDS011;40108;53.152;5.844;2023-11-22T12:48:21;19.15;;;13.10;;
54201;SDS011;40108;53.152;5.844;2023-11-22T12:50:50;16.70;;;12.75;;
54201;SDS011;40108;53.152;5.844;2023-11-22T12:53:17;21.73;;;13.15;;
54201;SDS011;40108;53.152;5.844;2023-11-22T12:55:47;17.17;;;11.70;;
54201;SDS011;40108;53.152;5.844;2023-11-22T12:58:17;20.50;;;13.10;;
54201;SDS011;40108;53.152;5.844;2023-11-22T13:00:47;23.30;;;13.57;;
54201;SDS011;40108;53.152;5.844;2023-11-22T13:03:14;19.38;;;12.45;;
54201;SDS011;40108;53.152;5.844;2023-11-22T13:05:41;24.92;;;15.18;;
54201;SDS011;40108;53.152;5.844;2023-11-22T13:08:09;21.80;;;14.43;;
54201;SDS011;40108;53.152;5.844;2023-11-22T13:10:47;20.95;;;14.23;;
54201;SDS011;40108;53.152;5.844;2023-11-22T13:13:20;23.65;;;14.23;;
54201;SDS011;40108;53.152;5.844;2023-11-22T13:15:47;20.88;;;14.02;;
54201;SDS011;40108;53.152;5.844;2023-11-22T13:18:14;19.48;;;13.75;;
54201;SDS011;40108;53.152;5.844;2023-11-22T13:20:41;24.10;;;13.55;;
54201;SDS011;40108;53.152;5.844;2023-11-22T13:23:08;26.40;;;15.20;;
54201;SDS011;40108;53.152;5.844;2023-11-22T13:25:34;31.00;;;14.70;;
54201;SDS011;40108;53.152;5.844;2023-11-22T13:28:00;20.17;;;13.02;;
54201;SDS011;40108;53.152;5.844;2023-11-22T13:30:25;19.90;;;14.15;;
54201;SDS011;40108;53.152;5.844;2023-11-22T13:32:52;21.73;;;14.40;;
54201;SDS011;40108;53.152;5.844;2023-11-22T13:35:21;20.70;;;14.52;;
54201;SDS011;40108;53.152;5.844;2023-11-22T13:37:47;21.10;;;14.82;;
54201;SDS011;40108;53.152;5.844;2023-11-22T13:40:14;18.25;;;12.48;;
54201;SDS011;40108;53.152;5.844;2023-11-22T13:42:47;18.45;;;12.85;;
54201;SDS011;40108;53.152;5.844;2023-11-22T13:45:15;18.05;;;12.60;;
54201;SDS011;40108;53.152;5.844;2023-11-22T13:47:42;20.23;;;13.55;;
54201;SDS011;40108;53.152;5.844;2023-11-22T13:50:09;18.90;;;13.13;;
54201;SDS011;40108;53.152;5.844;2023-11-22T13:52:37;16.52;;;8.88;;
54201;SDS011;40108;53.152;5.844;2023-11-22T13:55:03;17.65;;;12.23;;
54201;SDS011;40108;53.152;5.844;2023-11-22T13:57:33;18.90;;;12.27;;
54201;SDS011;40108;53.152;5.844;2023-11-22T13:59:59;13.00;;;9.45;;
54201;SDS011;40108;53.152;5.844;2023-11-22T14:02:24;20.00;;;13.20;;
54201;SDS011;40108;53.152;5.844;2023-11-22T14:04:50;21.38;;;14.15;;
54201;SDS011;40108;53.152;5.844;2023-11-22T14:07:17;21.08;;;12.63;;
54201;SDS011;40108;53.152;5.844;2023-11-22T14:09:43;20.05;;;15.18;;
54201;SDS011;40108;53.152;5.844;2023-11-22T14:12:12;18.40;;;12.68;;
54201;SDS011;40108;53.152;5.844;2023-11-22T14:14:37;19.85;;;12.68;;
54201;SDS011;40108;53.152;5.844;2023-11-22T14:17:03;18.60;;;13.57;;
54201;SDS011;40108;53.152;5.844;2023-11-22T14:19:29;20.65;;;13.43;;
54201;SDS011;40108;53.152;5.844;2023-11-22T14:21:55;19.08;;;12.88;;
54201;SDS011;40108;53.152;5.844;2023-11-22T14:24:20;23.67;;;15.45;;
54201;SDS011;40108;53.152;5.844;2023-11-22T14:26:46;21.15;;;14.55;;
54201;SDS011;40108;53.152;5.844;2023-11-22T14:29:14;20.73;;;14.52;;
54201;SDS011;40108;53.152;5.844;2023-11-22T14:31:40;16.42;;;12.02;;